sensor_id;sensor_type;location;lat;lon;timestamp;P1;durP1;ratioP1;P2;durP2;ratioP2
8086;SDS011;4086;54.412;9.980;2022-12-18T00:01:36;24.40;;;15.50;;
8086;SDS011;4086;54.412;9.980;2022-12-18T00:04:03;27.47;;;15.53;;
8086;SDS011;4086;54.412;9.980;2022-12-18T00:06:31;25.70;;;15.87;;
8086;SDS011;4086;54.412;9.980;2022-12-18T00:08:59;23.60;;;15.10;;
8086;SDS011;4086;54.412;9.980;2022-12-18T00:11:26;26.17;;;16.27;;
8086;SDS011;4086;54.412;9.980;2022-12-18T00:13:57;24.07;;;14.73;;
8086;SDS011;4086;54.412;9.980;2022-12-18T00:16:25;24.03;;;14.67;;
8086;SDS011;4086;54.412;9.980;2022-12-18T00:18:53;25.87;;;15.93;;
8086;SDS011;4086;54.412;9.980;2022-12-18T00:21:21;24.87;;;14.97;;
8086;SDS011;4086;54.412;9.980;2022-12-18T00:23:48;25.10;;;15.03;;
8086;SDS011;4086;54.412;9.980;2022-12-18T00:26:17;24.03;;;14.83;;
8086;SDS011;4086;54.412;9.980;2022-12-18T00:28:45;27.20;;;15.33;;
8086;SDS011;4086;54.412;9.980;2022-12-18T00:31:14;24.90;;;14.87;;
8086;SDS011;4086;54.412;9.980;2022-12-18T00:33:42;22.83;;;14.37;;
8086;SDS011;4086;54.412;9.980;2022-12-18T00:36:10;22.77;;;14.60;;
8086;SDS011;4086;54.412;9.980;2022-12-18T00:38:37;26.33;;;16.40;;
8086;SDS011;4086;54.412;9.980;2022-12-18T00:41:04;22.60;;;14.00;;
8086;SDS011;4086;54.412;9.980;2022-12-18T00:43:31;24.53;;;14.57;;
8086;SDS011;4086;54.412;9.980;2022-12-18T00:45:59;23.47;;;15.20;;
8086;SDS011;4086;54.412;9.980;2022-12-18T00:48:27;27.43;;;15.00;;
8086;SDS011;4086;54.412;9.980;2022-12-18T00:50:53;23.43;;;15.20;;
8086;SDS011;4086;54.412;9.980;2022-12-18T00:53:20;23.20;;;14.33;;
8086;SDS011;4086;54.412;9.980;2022-12-18T00:55:47;24.73;;;14.17;;
8086;SDS011;4086;54.412;9.980;2022-12-18T00:58:14;25.30;;;14.80;;
8086;SDS011;4086;54.412;9.980;2022-12-18T01:00:41;26.20;;;14.83;;
8086;SDS011;4086;54.412;9.980;2022-12-18T01:03:09;21.50;;;13.93;;
8086;SDS011;4086;54.412;9.980;2022-12-18T01:05:39;26.97;;;15.60;;
8086;SDS011;4086;54.412;9.980;2022-12-18T01:08:06;23.07;;;14.73;;
8086;SDS011;4086;54.412;9.980;2022-12-18T01:10:33;23.03;;;14.70;;
8086;SDS011;4086;54.412;9.980;2022-12-18T01:12:59;26.17;;;15.87;;
8086;SDS011;4086;54.412;9.980;2022-12-18T01:15:25;24.80;;;14.50;;
8086;SDS011;4086;54.412;9.980;2022-12-18T01:17:52;22.73;;;14.67;;
8086;SDS011;4086;54.412;9.980;2022-12-18T01:20:18;27.23;;;14.77;;
8086;SDS011;4086;54.412;9.980;2022-12-18T01:22:46;24.47;;;14.57;;
8086;SDS011;4086;54.412;9.980;2022-12-18T01:25:13;27.73;;;14.90;;
8086;SDS011;4086;54.412;9.980;2022-12-18T01:27:39;24.87;;;14.57;;
8086;SDS011;4086;54.412;9.980;2022-12-18T01:30:06;21.13;;;13.93;;
8086;SDS011;4086;54.412;9.980;2022-12-18T01:32:33;24.30;;;15.07;;
8086;SDS011;4086;54.412;9.980;2022-12-18T01:34:59;21.70;;;13.93;;
8086;SDS011;4086;54.412;9.980;2022-12-18T01:37:26;23.17;;;14.23;;
8086;SDS011;4086;54.412;9.980;2022-12-18T01:39:54;25.10;;;15.53;;
8086;SDS011;4086;54.412;9.980;2022-12-18T01:42:20;23.10;;;14.70;;
8086;SDS011;4086;54.412;9.980;2022-12-18T01:44:57;19.87;;;13.10;;
8086;SDS011;4086;54.412;9.980;2022-12-18T01:47:26;31.37;;;15.60;;
8086;SDS011;4086;54.412;9.980;2022-12-18T01:49:55;29.40;;;16.23;;
8086;SDS011;4086;54.412;9.980;2022-12-18T01:52:22;23.70;;;14.13;;
8086;SDS011;4086;54.412;9.980;2022-12-18T01:54:50;20.87;;;13.60;;
8086;SDS011;4086;54.412;9.980;2022-12-18T01:57:19;23.33;;;15.07;;
8086;SDS011;4086;54.412;9.980;2022-12-18T01:59:47;23.60;;;14.03;;
8086;SDS011;4086;54.412;9.980;2022-12-18T02:02:16;20.77;;;13.97;;
8086;SDS011;4086;54.412;9.980;2022-12-18T02:04:43;20.20;;;13.43;;
8086;SDS011;4086;54.412;9.980;2022-12-18T02:07:10;22.67;;;14.33;;
8086;SDS011;4086;54.412;9.980;2022-12-18T02:09:44;25.80;;;15.53;;
8086;SDS011;4086;54.412;9.980;2022-12-18T02:12:13;23.23;;;14.60;;
8086;SDS011;4086;54.412;9.980;2022-12-18T02:14:45;21.33;;;14.00;;
8086;SDS011;4086;54.412;9.980;2022-12-18T02:17:18;19.60;;;13.03;;
8086;SDS011;4086;54.412;9.980;2022-12-18T02:19:48;23.57;;;14.13;;
8086;SDS011;4086;54.412;9.980;2022-12-18T02:22:26;18.40;;;13.10;;
8086;SDS011;4086;54.412;9.980;2022-12-18T02:24:59;22.63;;;13.77;;
8086;SDS011;4086;54.412;9.980;2022-12-18T02:27:33;20.27;;;13.17;;
8086;SDS011;4086;54.412;9.980;2022-12-18T02:30:00;24.40;;;13.53;;
8086;SDS011;4086;54.412;9.980;2022-12-18T02:32:27;22.43;;;14.03;;
8086;SDS011;4086;54.412;9.980;2022-12-18T02:34:56;22.00;;;13.90;;
8086;SDS011;4086;54.412;9.980;2022-12-18T02:37:23;21.83;;;14.37;;
8086;SDS011;4086;54.412;9.980;2022-12-18T02:39:51;23.63;;;13.70;;
8086;SDS011;4086;54.412;9.980;2022-12-18T02:42:19;22.53;;;14.40;;
8086;SDS011;4086;54.412;9.980;2022-12-18T02:44:48;22.67;;;13.90;;
8086;SDS011;4086;54.412;9.980;2022-12-18T02:47:16;22.80;;;13.57;;
8086;SDS011;4086;54.412;9.980;2022-12-18T02:49:46;22.07;;;14.37;;
8086;SDS011;4086;54.412;9.980;2022-12-18T02:52:18;25.40;;;13.10;;
8086;SDS011;4086;54.412;9.980;2022-12-18T02:54:56;24.33;;;13.77;;
8086;SDS011;4086;54.412;9.980;2022-12-18T02:57:29;26.73;;;14.20;;
8086;SDS011;4086;54.412;9.980;2022-12-18T03:00:03;22.20;;;13.63;;
8086;SDS011;4086;54.412;9.980;2022-12-18T03:02:34;21.20;;;13.13;;
8086;SDS011;4086;54.412;9.980;2022-12-18T03:05:05;20.17;;;12.60;;
8086;SDS011;4086;54.412;9.980;2022-12-18T03:07:36;21.73;;;13.40;;
8086;SDS011;4086;54.412;9.980;2022-12-18T03:10:07;21.20;;;13.37;;
8086;SDS011;4086;54.412;9.980;2022-12-18T03:12:36;27.67;;;14.57;;
8086;SDS011;4086;54.412;9.980;2022-12-18T03:15:07;17.60;;;12.00;;
8086;SDS011;4086;54.412;9.980;2022-12-18T03:17:35;21.47;;;13.57;;
8086;SDS011;4086;54.412;9.980;2022-12-18T03:20:04;18.73;;;12.93;;
8086;SDS011;4086;54.412;9.980;2022-12-18T03:22:33;23.60;;;14.00;;
8086;SDS011;4086;54.412;9.980;2022-12-18T03:25:01;21.87;;;12.37;;
8086;SDS011;4086;54.412;9.980;2022-12-18T03:27:29;20.00;;;12.70;;
8086;SDS011;4086;54.412;9.980;2022-12-18T03:30:00;20.53;;;12.77;;
8086;SDS011;4086;54.412;9.980;2022-12-18T03:32:34;21.37;;;13.27;;
8086;SDS011;4086;54.412;9.980;2022-12-18T03:35:03;17.93;;;12.00;;
8086;SDS011;4086;54.412;9.980;2022-12-18T03:37:31;22.50;;;12.97;;
8086;SDS011;4086;54.412;9.980;2022-12-18T03:39:57;20.53;;;13.00;;
8086;SDS011;4086;54.412;9.980;2022-12-18T03:42:25;21.83;;;12.73;;
8086;SDS011;4086;54.412;9.980;2022-12-18T03:44:57;21.63;;;12.37;;
8086;SDS011;4086;54.412;9.980;2022-12-18T03:47:25;18.93;;;12.20;;
8086;SDS011;4086;54.412;9.980;2022-12-18T03:49:56;23.40;;;13.40;;
8086;SDS011;4086;54.412;9.980;2022-12-18T03:52:25;20.23;;;12.30;;
8086;SDS011;4086;54.412;9.980;2022-12-18T03:54:52;17.97;;;11.67;;
8086;SDS011;4086;54.412;9.980;2022-12-18T03:57:20;20.57;;;12.33;;
8086;SDS011;4086;54.412;9.980;2022-12-18T03:59:49;21.73;;;12.47;;
8086;SDS011;4086;54.412;9.980;2022-12-18T04:02:16;17.47;;;11.33;;
8086;SDS011;4086;54.412;9.980;2022-12-18T04:04:43;18.60;;;12.00;;
8086;SDS011;4086;54.412;9.980;2022-12-18T04:07:12;22.23;;;12.90;;
8086;SDS011;4086;54.412;9.980;2022-12-18T04:09:39;19.90;;;11.57;;
8086;SDS011;4086;54.412;9.980;2022-12-18T04:12:07;23.90;;;13.23;;
8086;SDS011;4086;54.412;9.980;2022-12-18T04:14:34;18.47;;;12.20;;
8086;SDS011;4086;54.412;9.980;2022-12-18T04:17:00;18.00;;;12.30;;
8086;SDS011;4086;54.412;9.980;2022-12-18T04:19:27;20.10;;;12.30;;
8086;SDS011;4086;54.412;9.980;2022-12-18T04:21:53;20.40;;;11.73;;
8086;SDS011;4086;54.412;9.980;2022-12-18T04:24:21;22.77;;;12.30;;
8086;SDS011;4086;54.412;9.980;2022-12-18T04:26:48;16.87;;;11.37;;
8086;SDS011;4086;54.412;9.980;2022-12-18T04:29:14;19.57;;;11.80;;
8086;SDS011;4086;54.412;9.980;2022-12-18T04:31:40;18.10;;;12.73;;
8086;SDS011;4086;54.412;9.980;2022-12-18T04:34:07;19.57;;;12.53;;
8086;SDS011;4086;54.412;9.980;2022-12-18T04:36:33;21.30;;;12.70;;
8086;SDS011;4086;54.412;9.980;2022-12-18T04:38:59;19.93;;;12.23;;
8086;SDS011;4086;54.412;9.980;2022-12-18T04:41:27;22.87;;;12.50;;
8086;SDS011;4086;54.412;9.980;2022-12-18T04:43:53;19.47;;;12.57;;
8086;SDS011;4086;54.412;9.980;2022-12-18T04:46:20;20.63;;;13.10;;
8086;SDS011;4086;54.412;9.980;2022-12-18T04:48:46;19.47;;;11.57;;
8086;SDS011;4086;54.412;9.980;2022-12-18T04:51:13;18.27;;;12.10;;
8086;SDS011;4086;54.412;9.980;2022-12-18T04:53:39;21.63;;;12.13;;
8086;SDS011;4086;54.412;9.980;2022-12-18T04:56:06;17.87;;;11.73;;
8086;SDS011;4086;54.412;9.980;2022-12-18T04:58:36;16.50;;;11.23;;
8086;SDS011;4086;54.412;9.980;2022-12-18T05:01:03;18.63;;;12.23;;
8086;SDS011;4086;54.412;9.980;2022-12-18T05:03:30;18.07;;;11.53;;
8086;SDS011;4086;54.412;9.980;2022-12-18T05:05:56;19.73;;;12.70;;
8086;SDS011;4086;54.412;9.980;2022-12-18T05:08:23;22.00;;;12.27;;
8086;SDS011;4086;54.412;9.980;2022-12-18T05:10:49;18.53;;;10.83;;
8086;SDS011;4086;54.412;9.980;2022-12-18T05:13:16;17.43;;;11.37;;
8086;SDS011;4086;54.412;9.980;2022-12-18T05:15:50;17.10;;;11.00;;
8086;SDS011;4086;54.412;9.980;2022-12-18T05:18:17;19.33;;;11.50;;
8086;SDS011;4086;54.412;9.980;2022-12-18T05:20:43;21.03;;;12.20;;
8086;SDS011;4086;54.412;9.980;2022-12-18T05:23:10;18.10;;;11.50;;
8086;SDS011;4086;54.412;9.980;2022-12-18T05:25:36;17.87;;;11.60;;
8086;SDS011;4086;54.412;9.980;2022-12-18T05:28:02;18.27;;;10.97;;
8086;SDS011;4086;54.412;9.980;2022-12-18T05:30:29;17.43;;;10.50;;
8086;SDS011;4086;54.412;9.980;2022-12-18T05:32:57;21.37;;;11.87;;
8086;SDS011;4086;54.412;9.980;2022-12-18T05:35:23;20.47;;;11.30;;
8086;SDS011;4086;54.412;9.980;2022-12-18T05:37:50;21.23;;;11.50;;
8086;SDS011;4086;54.412;9.980;2022-12-18T05:40:16;18.03;;;11.13;;
8086;SDS011;4086;54.412;9.980;2022-12-18T05:42:43;18.63;;;10.83;;
8086;SDS011;4086;54.412;9.980;2022-12-18T05:45:09;16.57;;;10.90;;
8086;SDS011;4086;54.412;9.980;2022-12-18T05:47:36;17.40;;;11.13;;
8086;SDS011;4086;54.412;9.980;2022-12-18T05:50:04;17.93;;;11.17;;
8086;SDS011;4086;54.412;9.980;2022-12-18T05:52:32;17.50;;;11.30;;
8086;SDS011;4086;54.412;9.980;2022-12-18T05:54:58;19.23;;;11.37;;
8086;SDS011;4086;54.412;9.980;2022-12-18T05:57:25;19.07;;;11.80;;
8086;SDS011;4086;54.412;9.980;2022-12-18T05:59:51;16.47;;;11.07;;
8086;SDS011;4086;54.412;9.980;2022-12-18T06:02:17;18.30;;;11.30;;
8086;SDS011;4086;54.412;9.980;2022-12-18T06:04:45;17.73;;;10.70;;
8086;SDS011;4086;54.412;9.980;2022-12-18T06:07:13;17.33;;;11.23;;
8086;SDS011;4086;54.412;9.980;2022-12-18T06:09:40;15.37;;;10.53;;
8086;SDS011;4086;54.412;9.980;2022-12-18T06:12:06;15.13;;;10.33;;
8086;SDS011;4086;54.412;9.980;2022-12-18T06:14:32;18.50;;;11.10;;
8086;SDS011;4086;54.412;9.980;2022-12-18T06:16:59;17.17;;;11.03;;
8086;SDS011;4086;54.412;9.980;2022-12-18T06:19:25;18.67;;;10.83;;
8086;SDS011;4086;54.412;9.980;2022-12-18T06:21:51;17.23;;;10.40;;
8086;SDS011;4086;54.412;9.980;2022-12-18T06:24:19;16.47;;;9.97;;
8086;SDS011;4086;54.412;9.980;2022-12-18T06:26:45;15.63;;;9.97;;
8086;SDS011;4086;54.412;9.980;2022-12-18T06:29:12;17.63;;;10.57;;
8086;SDS011;4086;54.412;9.980;2022-12-18T06:31:38;16.57;;;10.17;;
8086;SDS011;4086;54.412;9.980;2022-12-18T06:34:04;16.10;;;9.97;;
8086;SDS011;4086;54.412;9.980;2022-12-18T06:36:31;18.13;;;10.60;;
8086;SDS011;4086;54.412;9.980;2022-12-18T06:38:58;16.23;;;9.93;;
8086;SDS011;4086;54.412;9.980;2022-12-18T06:41:26;16.73;;;10.73;;
8086;SDS011;4086;54.412;9.980;2022-12-18T06:43:52;16.00;;;10.13;;
8086;SDS011;4086;54.412;9.980;2022-12-18T06:46:19;15.43;;;10.03;;
8086;SDS011;4086;54.412;9.980;2022-12-18T06:48:48;14.80;;;9.60;;
8086;SDS011;4086;54.412;9.980;2022-12-18T06:51:16;14.23;;;9.77;;
8086;SDS011;4086;54.412;9.980;2022-12-18T06:53:43;14.80;;;9.70;;
8086;SDS011;4086;54.412;9.980;2022-12-18T06:56:10;17.00;;;9.90;;
8086;SDS011;4086;54.412;9.980;2022-12-18T06:58:38;15.37;;;10.23;;
8086;SDS011;4086;54.412;9.980;2022-12-18T07:01:05;15.50;;;9.93;;
8086;SDS011;4086;54.412;9.980;2022-12-18T07:03:32;15.50;;;10.03;;
8086;SDS011;4086;54.412;9.980;2022-12-18T07:05:59;14.97;;;9.40;;
8086;SDS011;4086;54.412;9.980;2022-12-18T07:08:25;14.93;;;9.50;;
8086;SDS011;4086;54.412;9.980;2022-12-18T07:10:51;16.43;;;9.73;;
8086;SDS011;4086;54.412;9.980;2022-12-18T07:13:18;14.10;;;9.13;;
8086;SDS011;4086;54.412;9.980;2022-12-18T07:15:46;15.50;;;9.60;;
8086;SDS011;4086;54.412;9.980;2022-12-18T07:18:13;13.73;;;9.37;;
8086;SDS011;4086;54.412;9.980;2022-12-18T07:20:39;14.07;;;9.43;;
8086;SDS011;4086;54.412;9.980;2022-12-18T07:23:06;14.73;;;9.43;;
8086;SDS011;4086;54.412;9.980;2022-12-18T07:25:33;13.57;;;9.30;;
8086;SDS011;4086;54.412;9.980;2022-12-18T07:27:59;16.20;;;9.80;;
8086;SDS011;4086;54.412;9.980;2022-12-18T07:30:26;14.70;;;8.80;;
8086;SDS011;4086;54.412;9.980;2022-12-18T07:32:53;14.70;;;9.13;;
8086;SDS011;4086;54.412;9.980;2022-12-18T07:35:20;16.33;;;9.87;;
8086;SDS011;4086;54.412;9.980;2022-12-18T07:37:46;13.23;;;8.77;;
8086;SDS011;4086;54.412;9.980;2022-12-18T07:40:12;13.57;;;9.03;;
8086;SDS011;4086;54.412;9.980;2022-12-18T07:42:39;14.40;;;9.13;;
8086;SDS011;4086;54.412;9.980;2022-12-18T07:45:06;13.67;;;9.70;;
8086;SDS011;4086;54.412;9.980;2022-12-18T07:47:34;14.23;;;9.37;;
8086;SDS011;4086;54.412;9.980;2022-12-18T07:50:02;13.73;;;9.07;;
8086;SDS011;4086;54.412;9.980;2022-12-18T07:52:29;15.17;;;8.97;;
8086;SDS011;4086;54.412;9.980;2022-12-18T07:54:55;13.87;;;8.87;;
8086;SDS011;4086;54.412;9.980;2022-12-18T07:57:22;15.07;;;8.87;;
8086;SDS011;4086;54.412;9.980;2022-12-18T07:59:48;15.60;;;9.47;;
8086;SDS011;4086;54.412;9.980;2022-12-18T08:02:15;12.93;;;8.07;;
8086;SDS011;4086;54.412;9.980;2022-12-18T08:04:41;14.27;;;9.50;;
8086;SDS011;4086;54.412;9.980;2022-12-18T08:07:09;12.30;;;8.60;;
8086;SDS011;4086;54.412;9.980;2022-12-18T08:09:35;14.73;;;9.30;;
8086;SDS011;4086;54.412;9.980;2022-12-18T08:12:02;14.10;;;9.27;;
8086;SDS011;4086;54.412;9.980;2022-12-18T08:14:28;12.23;;;8.10;;
8086;SDS011;4086;54.412;9.980;2022-12-18T08:16:55;16.13;;;9.57;;
8086;SDS011;4086;54.412;9.980;2022-12-18T08:19:21;14.73;;;9.10;;
8086;SDS011;4086;54.412;9.980;2022-12-18T08:21:48;14.13;;;8.63;;
8086;SDS011;4086;54.412;9.980;2022-12-18T08:24:16;13.70;;;8.70;;
8086;SDS011;4086;54.412;9.980;2022-12-18T08:26:42;16.17;;;8.40;;
8086;SDS011;4086;54.412;9.980;2022-12-18T08:29:09;11.37;;;8.23;;
8086;SDS011;4086;54.412;9.980;2022-12-18T08:31:36;15.50;;;8.93;;
8086;SDS011;4086;54.412;9.980;2022-12-18T08:34:02;12.23;;;8.30;;
8086;SDS011;4086;54.412;9.980;2022-12-18T08:36:28;14.37;;;9.03;;
8086;SDS011;4086;54.412;9.980;2022-12-18T08:38:55;14.90;;;9.20;;
8086;SDS011;4086;54.412;9.980;2022-12-18T08:41:24;12.77;;;8.73;;
8086;SDS011;4086;54.412;9.980;2022-12-18T08:43:50;11.60;;;7.53;;
8086;SDS011;4086;54.412;9.980;2022-12-18T08:46:45;14.30;;;8.30;;
8086;SDS011;4086;54.412;9.980;2022-12-18T08:49:12;12.10;;;8.17;;
8086;SDS011;4086;54.412;9.980;2022-12-18T08:51:38;12.53;;;7.60;;
8086;SDS011;4086;54.412;9.980;2022-12-18T08:54:05;11.43;;;7.90;;
8086;SDS011;4086;54.412;9.980;2022-12-18T08:56:33;12.47;;;7.60;;
8086;SDS011;4086;54.412;9.980;2022-12-18T08:59:00;11.57;;;7.40;;
8086;SDS011;4086;54.412;9.980;2022-12-18T09:01:26;12.27;;;8.20;;
8086;SDS011;4086;54.412;9.980;2022-12-18T09:03:53;13.27;;;7.77;;
8086;SDS011;4086;54.412;9.980;2022-12-18T09:06:20;15.17;;;8.00;;
8086;SDS011;4086;54.412;9.980;2022-12-18T09:08:47;12.33;;;7.50;;
8086;SDS011;4086;54.412;9.980;2022-12-18T09:11:14;11.73;;;7.57;;
8086;SDS011;4086;54.412;9.980;2022-12-18T09:13:47;13.57;;;7.40;;
8086;SDS011;4086;54.412;9.980;2022-12-18T09:16:13;10.13;;;7.30;;
8086;SDS011;4086;54.412;9.980;2022-12-18T09:18:41;10.97;;;6.73;;
8086;SDS011;4086;54.412;9.980;2022-12-18T09:21:08;11.33;;;7.93;;
8086;SDS011;4086;54.412;9.980;2022-12-18T09:23:35;9.30;;;6.50;;
8086;SDS011;4086;54.412;9.980;2022-12-18T09:26:01;11.17;;;7.13;;
8086;SDS011;4086;54.412;9.980;2022-12-18T09:28:28;10.87;;;7.60;;
8086;SDS011;4086;54.412;9.980;2022-12-18T09:30:55;12.50;;;7.33;;
8086;SDS011;4086;54.412;9.980;2022-12-18T09:33:22;11.93;;;8.63;;
8086;SDS011;4086;54.412;9.980;2022-12-18T09:35:48;12.70;;;9.27;;
8086;SDS011;4086;54.412;9.980;2022-12-18T09:38:15;12.17;;;8.53;;
8086;SDS011;4086;54.412;9.980;2022-12-18T09:40:45;12.90;;;9.03;;
8086;SDS011;4086;54.412;9.980;2022-12-18T09:43:13;11.90;;;8.90;;
8086;SDS011;4086;54.412;9.980;2022-12-18T09:45:44;12.63;;;8.67;;
8086;SDS011;4086;54.412;9.980;2022-12-18T09:48:15;13.80;;;8.60;;
8086;SDS011;4086;54.412;9.980;2022-12-18T09:50:45;13.40;;;8.90;;
8086;SDS011;4086;54.412;9.980;2022-12-18T09:53:14;12.00;;;9.10;;
8086;SDS011;4086;54.412;9.980;2022-12-18T09:55:44;13.90;;;8.70;;
8086;SDS011;4086;54.412;9.980;2022-12-18T09:58:13;11.27;;;8.37;;
8086;SDS011;4086;54.412;9.980;2022-12-18T10:00:43;16.27;;;9.00;;
8086;SDS011;4086;54.412;9.980;2022-12-18T10:03:10;15.10;;;10.00;;
8086;SDS011;4086;54.412;9.980;2022-12-18T10:05:40;12.30;;;9.33;;
8086;SDS011;4086;54.412;9.980;2022-12-18T10:08:11;14.00;;;9.60;;
8086;SDS011;4086;54.412;9.980;2022-12-18T10:10:41;13.40;;;10.30;;
8086;SDS011;4086;54.412;9.980;2022-12-18T10:13:12;14.73;;;9.80;;
8086;SDS011;4086;54.412;9.980;2022-12-18T10:15:50;13.57;;;8.77;;
8086;SDS011;4086;54.412;9.980;2022-12-18T10:18:23;11.63;;;8.63;;
8086;SDS011;4086;54.412;9.980;2022-12-18T10:20:58;12.63;;;8.43;;
8086;SDS011;4086;54.412;9.980;2022-12-18T10:23:26;11.57;;;8.30;;
8086;SDS011;4086;54.412;9.980;2022-12-18T10:25:59;12.40;;;7.97;;
8086;SDS011;4086;54.412;9.980;2022-12-18T10:28:29;11.40;;;8.00;;
8086;SDS011;4086;54.412;9.980;2022-12-18T10:30:56;12.93;;;8.03;;
8086;SDS011;4086;54.412;9.980;2022-12-18T10:33:24;12.47;;;7.50;;
8086;SDS011;4086;54.412;9.980;2022-12-18T10:35:53;12.10;;;8.27;;
8086;SDS011;4086;54.412;9.980;2022-12-18T10:38:22;11.77;;;8.13;;
8086;SDS011;4086;54.412;9.980;2022-12-18T10:40:51;12.83;;;8.67;;
8086;SDS011;4086;54.412;9.980;2022-12-18T10:43:20;12.93;;;9.20;;
8086;SDS011;4086;54.412;9.980;2022-12-18T10:46:05;14.83;;;10.07;;
8086;SDS011;4086;54.412;9.980;2022-12-18T10:48:39;13.83;;;9.17;;
8086;SDS011;4086;54.412;9.980;2022-12-18T10:51:19;14.90;;;9.80;;
8086;SDS011;4086;54.412;9.980;2022-12-18T10:53:50;13.17;;;9.20;;
8086;SDS011;4086;54.412;9.980;2022-12-18T10:56:19;12.47;;;9.20;;
8086;SDS011;4086;54.412;9.980;2022-12-18T10:58:46;10.27;;;8.07;;
8086;SDS011;4086;54.412;9.980;2022-12-18T11:01:21;12.70;;;8.87;;
8086;SDS011;4086;54.412;9.980;2022-12-18T11:03:58;12.13;;;9.07;;
8086;SDS011;4086;54.412;9.980;2022-12-18T11:06:26;14.23;;;9.13;;
8086;SDS011;4086;54.412;9.980;2022-12-18T11:08:59;13.30;;;9.10;;
8086;SDS011;4086;54.412;9.980;2022-12-18T11:11:26;12.00;;;8.73;;
8086;SDS011;4086;54.412;9.980;2022-12-18T11:14:02;12.73;;;8.20;;
8086;SDS011;4086;54.412;9.980;2022-12-18T11:16:30;11.33;;;7.53;;
8086;SDS011;4086;54.412;9.980;2022-12-18T11:19:09;8.83;;;7.27;;
8086;SDS011;4086;54.412;9.980;2022-12-18T11:21:39;10.53;;;7.53;;
8086;SDS011;4086;54.412;9.980;2022-12-18T11:24:08;12.07;;;7.63;;
8086;SDS011;4086;54.412;9.980;2022-12-18T11:26:44;9.33;;;7.13;;
8086;SDS011;4086;54.412;9.980;2022-12-18T11:29:15;11.90;;;8.07;;
8086;SDS011;4086;54.412;9.980;2022-12-18T11:31:42;11.03;;;7.53;;
8086;SDS011;4086;54.412;9.980;2022-12-18T11:34:09;10.27;;;7.17;;
8086;SDS011;4086;54.412;9.980;2022-12-18T11:36:39;9.30;;;7.43;;
8086;SDS011;4086;54.412;9.980;2022-12-18T11:39:11;11.23;;;7.40;;
8086;SDS011;4086;54.412;9.980;2022-12-18T11:41:41;11.43;;;7.60;;
8086;SDS011;4086;54.412;9.980;2022-12-18T11:44:32;9.93;;;7.13;;
8086;SDS011;4086;54.412;9.980;2022-12-18T11:47:03;11.73;;;8.13;;
8086;SDS011;4086;54.412;9.980;2022-12-18T11:49:34;12.70;;;7.47;;
8086;SDS011;4086;54.412;9.980;2022-12-18T11:52:01;9.93;;;7.13;;
8086;SDS011;4086;54.412;9.980;2022-12-18T11:54:31;9.33;;;6.70;;
8086;SDS011;4086;54.412;9.980;2022-12-18T11:56:58;10.23;;;7.27;;
8086;SDS011;4086;54.412;9.980;2022-12-18T11:59:31;11.27;;;7.40;;
8086;SDS011;4086;54.412;9.980;2022-12-18T12:02:02;11.70;;;8.20;;
8086;SDS011;4086;54.412;9.980;2022-12-18T12:04:40;10.50;;;7.23;;
8086;SDS011;4086;54.412;9.980;2022-12-18T12:07:15;12.67;;;7.77;;
8086;SDS011;4086;54.412;9.980;2022-12-18T12:09:49;12.40;;;8.40;;
8086;SDS011;4086;54.412;9.980;2022-12-18T12:12:26;12.47;;;7.90;;
8086;SDS011;4086;54.412;9.980;2022-12-18T12:15:12;10.87;;;7.80;;
8086;SDS011;4086;54.412;9.980;2022-12-18T12:17:45;12.93;;;8.40;;
8086;SDS011;4086;54.412;9.980;2022-12-18T12:20:16;15.63;;;9.00;;
8086;SDS011;4086;54.412;9.980;2022-12-18T12:22:47;11.47;;;8.27;;
8086;SDS011;4086;54.412;9.980;2022-12-18T12:25:25;13.17;;;8.60;;
8086;SDS011;4086;54.412;9.980;2022-12-18T12:27:57;13.87;;;8.73;;
8086;SDS011;4086;54.412;9.980;2022-12-18T12:30:35;11.83;;;8.07;;
8086;SDS011;4086;54.412;9.980;2022-12-18T12:33:10;12.03;;;7.80;;
8086;SDS011;4086;54.412;9.980;2022-12-18T12:35:45;15.80;;;9.70;;
8086;SDS011;4086;54.412;9.980;2022-12-18T12:38:14;13.90;;;8.90;;
8086;SDS011;4086;54.412;9.980;2022-12-18T12:40:46;13.33;;;8.70;;
8086;SDS011;4086;54.412;9.980;2022-12-18T12:43:20;12.33;;;8.77;;
8086;SDS011;4086;54.412;9.980;2022-12-18T12:45:50;12.47;;;8.67;;
8086;SDS011;4086;54.412;9.980;2022-12-18T12:48:20;15.77;;;8.90;;
8086;SDS011;4086;54.412;9.980;2022-12-18T12:51:00;16.43;;;8.63;;
8086;SDS011;4086;54.412;9.980;2022-12-18T12:53:28;14.43;;;8.73;;
8086;SDS011;4086;54.412;9.980;2022-12-18T12:55:58;15.57;;;8.57;;
8086;SDS011;4086;54.412;9.980;2022-12-18T12:58:27;17.73;;;8.60;;
8086;SDS011;4086;54.412;9.980;2022-12-18T13:01:00;13.93;;;8.30;;
8086;SDS011;4086;54.412;9.980;2022-12-18T13:03:33;12.50;;;8.77;;
8086;SDS011;4086;54.412;9.980;2022-12-18T13:06:08;12.47;;;8.43;;
8086;SDS011;4086;54.412;9.980;2022-12-18T13:08:51;11.33;;;8.33;;
8086;SDS011;4086;54.412;9.980;2022-12-18T13:11:29;12.10;;;8.33;;
8086;SDS011;4086;54.412;9.980;2022-12-18T13:14:24;12.83;;;8.37;;
8086;SDS011;4086;54.412;9.980;2022-12-18T13:19:50;11.70;;;7.47;;
8086;SDS011;4086;54.412;9.980;2022-12-18T13:22:21;11.83;;;7.70;;
8086;SDS011;4086;54.412;9.980;2022-12-18T13:24:48;11.27;;;8.13;;
8086;SDS011;4086;54.412;9.980;2022-12-18T13:36:16;13.23;;;7.97;;
8086;SDS011;4086;54.412;9.980;2022-12-18T13:41:37;14.43;;;8.33;;
8086;SDS011;4086;54.412;9.980;2022-12-18T13:44:11;14.03;;;8.23;;
8086;SDS011;4086;54.412;9.980;2022-12-18T13:46:42;14.03;;;8.53;;
8086;SDS011;4086;54.412;9.980;2022-12-18T13:49:16;12.50;;;8.40;;
8086;SDS011;4086;54.412;9.980;2022-12-18T13:51:47;15.23;;;9.07;;
8086;SDS011;4086;54.412;9.980;2022-12-18T13:54:17;11.80;;;8.67;;
8086;SDS011;4086;54.412;9.980;2022-12-18T13:56:45;12.50;;;7.97;;
8086;SDS011;4086;54.412;9.980;2022-12-18T13:59:15;14.37;;;8.83;;
8086;SDS011;4086;54.412;9.980;2022-12-18T14:01:47;12.20;;;7.83;;
8086;SDS011;4086;54.412;9.980;2022-12-18T14:04:18;13.27;;;7.93;;
8086;SDS011;4086;54.412;9.980;2022-12-18T14:06:46;14.53;;;8.63;;
8086;SDS011;4086;54.412;9.980;2022-12-18T14:09:14;14.23;;;8.80;;
8086;SDS011;4086;54.412;9.980;2022-12-18T14:11:45;15.17;;;8.77;;
8086;SDS011;4086;54.412;9.980;2022-12-18T14:14:14;11.20;;;7.67;;
8086;SDS011;4086;54.412;9.980;2022-12-18T14:16:41;12.33;;;8.30;;
8086;SDS011;4086;54.412;9.980;2022-12-18T14:19:08;13.33;;;8.57;;
8086;SDS011;4086;54.412;9.980;2022-12-18T14:21:36;14.67;;;8.70;;
8086;SDS011;4086;54.412;9.980;2022-12-18T14:24:04;12.67;;;8.23;;
8086;SDS011;4086;54.412;9.980;2022-12-18T14:26:32;12.87;;;8.43;;
8086;SDS011;4086;54.412;9.980;2022-12-18T14:28:59;14.43;;;8.90;;
8086;SDS011;4086;54.412;9.980;2022-12-18T14:31:29;17.53;;;9.40;;
8086;SDS011;4086;54.412;9.980;2022-12-18T14:33:56;13.70;;;8.20;;
8086;SDS011;4086;54.412;9.980;2022-12-18T14:36:23;14.93;;;9.20;;
8086;SDS011;4086;54.412;9.980;2022-12-18T14:38:51;19.90;;;9.80;;
8086;SDS011;4086;54.412;9.980;2022-12-18T14:41:19;15.83;;;9.00;;
8086;SDS011;4086;54.412;9.980;2022-12-18T14:43:46;16.53;;;9.03;;
8086;SDS011;4086;54.412;9.980;2022-12-18T14:49:04;14.63;;;9.40;;
8086;SDS011;4086;54.412;9.980;2022-12-18T14:51:41;18.37;;;9.83;;
8086;SDS011;4086;54.412;9.980;2022-12-18T14:54:15;15.53;;;9.03;;
8086;SDS011;4086;54.412;9.980;2022-12-18T14:56:43;18.50;;;11.13;;
8086;SDS011;4086;54.412;9.980;2022-12-18T14:59:12;19.77;;;9.80;;
8086;SDS011;4086;54.412;9.980;2022-12-18T15:01:45;19.00;;;9.87;;
8086;SDS011;4086;54.412;9.980;2022-12-18T15:04:23;17.30;;;9.57;;
8086;SDS011;4086;54.412;9.980;2022-12-18T15:07:01;18.20;;;9.93;;
8086;SDS011;4086;54.412;9.980;2022-12-18T15:09:29;19.57;;;10.20;;
8086;SDS011;4086;54.412;9.980;2022-12-18T15:11:56;18.73;;;9.90;;
8086;SDS011;4086;54.412;9.980;2022-12-18T15:14:28;22.63;;;10.47;;
8086;SDS011;4086;54.412;9.980;2022-12-18T15:16:59;19.67;;;9.97;;
8086;SDS011;4086;54.412;9.980;2022-12-18T15:19:28;20.47;;;9.77;;
8086;SDS011;4086;54.412;9.980;2022-12-18T15:22:02;21.97;;;9.93;;
8086;SDS011;4086;54.412;9.980;2022-12-18T15:24:29;19.43;;;9.47;;